sensor_id;sensor_type;location;lat;lon;timestamp;pressure;altitude;pressure_sealevel;temperature
64960;BMP180;51487;52.266;10.542;2023-04-24T00:00:55;99201.00;;;12.90
64960;BMP180;51487;52.266;10.542;2023-04-24T00:03:22;99206.00;;;12.90
64960;BMP180;51487;52.266;10.542;2023-04-24T00:05:49;99200.00;;;12.80
64960;BMP180;51487;52.266;10.542;2023-04-24T00:08:15;99204.00;;;12.80
64960;BMP180;51487;52.266;10.542;2023-04-24T00:10:41;99205.00;;;12.70
64960;BMP180;51487;52.266;10.542;2023-04-24T00:13:06;99195.00;;;12.70
64960;BMP180;51487;52.266;10.542;2023-04-24T00:15:32;99198.00;;;12.60
64960;BMP180;51487;52.266;10.542;2023-04-24T00:17:58;99200.00;;;12.60
64960;BMP180;51487;52.266;10.542;2023-04-24T00:20:23;99194.00;;;12.60
64960;BMP180;51487;52.266;10.542;2023-04-24T00:22:49;99186.00;;;12.60
64960;BMP180;51487;52.266;10.542;2023-04-24T00:25:15;99187.00;;;12.60
64960;BMP180;51487;52.266;10.542;2023-04-24T00:27:40;99189.00;;;12.50
64960;BMP180;51487;52.266;10.542;2023-04-24T00:30:06;99188.00;;;12.50
64960;BMP180;51487;52.266;10.542;2023-04-24T00:32:32;99184.00;;;12.40
64960;BMP180;51487;52.266;10.542;2023-04-24T00:34:58;99188.00;;;12.30
64960;BMP180;51487;52.266;10.542;2023-04-24T00:37:26;99175.00;;;12.30
64960;BMP180;51487;52.266;10.542;2023-04-24T00:39:52;99181.00;;;12.30
64960;BMP180;51487;52.266;10.542;2023-04-24T00:42:17;99175.00;;;12.20
64960;BMP180;51487;52.266;10.542;2023-04-24T00:44:43;99184.00;;;12.20
64960;BMP180;51487;52.266;10.542;2023-04-24T00:47:09;99186.00;;;12.20
64960;BMP180;51487;52.266;10.542;2023-04-24T00:49:36;99191.00;;;12.10
64960;BMP180;51487;52.266;10.542;2023-04-24T00:52:02;99192.00;;;12.10
64960;BMP180;51487;52.266;10.542;2023-04-24T00:54:32;99191.00;;;12.10
64960;BMP180;51487;52.266;10.542;2023-04-24T00:56:58;99194.00;;;12.10
64960;BMP180;51487;52.266;10.542;2023-04-24T00:59:24;99209.00;;;12.00
64960;BMP180;51487;52.266;10.542;2023-04-24T01:01:50;99197.00;;;11.90
64960;BMP180;51487;52.266;10.542;2023-04-24T01:04:16;99198.00;;;11.80
64960;BMP180;51487;52.266;10.542;2023-04-24T01:06:44;99199.00;;;11.90
64960;BMP180;51487;52.266;10.542;2023-04-24T01:09:10;99194.00;;;11.90
64960;BMP180;51487;52.266;10.542;2023-04-24T01:11:37;99197.00;;;11.80
64960;BMP180;51487;52.266;10.542;2023-04-24T01:14:03;99207.00;;;11.80
64960;BMP180;51487;52.266;10.542;2023-04-24T01:16:29;99198.00;;;11.80
64960;BMP180;51487;52.266;10.542;2023-04-24T01:18:55;99190.00;;;11.80
64960;BMP180;51487;52.266;10.542;2023-04-24T01:21:21;99190.00;;;11.80
64960;BMP180;51487;52.266;10.542;2023-04-24T01:23:52;99192.00;;;11.80
64960;BMP180;51487;52.266;10.542;2023-04-24T01:26:19;99195.00;;;11.70
64960;BMP180;51487;52.266;10.542;2023-04-24T01:28:46;99190.00;;;11.70
64960;BMP180;51487;52.266;10.542;2023-04-24T01:31:11;99187.00;;;11.60
64960;BMP180;51487;52.266;10.542;2023-04-24T01:33:37;99187.00;;;11.60
64960;BMP180;51487;52.266;10.542;2023-04-24T01:36:03;99185.00;;;11.50
64960;BMP180;51487;52.266;10.542;2023-04-24T01:38:29;99189.00;;;11.50
64960;BMP180;51487;52.266;10.542;2023-04-24T01:40:55;99181.00;;;11.50
64960;BMP180;51487;52.266;10.542;2023-04-24T01:43:21;99185.00;;;11.50
64960;BMP180;51487;52.266;10.542;2023-04-24T01:45:47;99190.00;;;11.50
64960;BMP180;51487;52.266;10.542;2023-04-24T01:48:12;99179.00;;;11.40
64960;BMP180;51487;52.266;10.542;2023-04-24T01:50:38;99177.00;;;11.40
64960;BMP180;51487;52.266;10.542;2023-04-24T01:53:04;99185.00;;;11.40
64960;BMP180;51487;52.266;10.542;2023-04-24T01:55:30;99185.00;;;11.40
64960;BMP180;51487;52.266;10.542;2023-04-24T01:57:56;99179.00;;;11.30
64960;BMP180;51487;52.266;10.542;2023-04-24T02:00:24;99185.00;;;11.30
64960;BMP180;51487;52.266;10.542;2023-04-24T02:02:50;99172.00;;;11.30
64960;BMP180;51487;52.266;10.542;2023-04-24T02:05:16;99174.00;;;11.30
64960;BMP180;51487;52.266;10.542;2023-04-24T02:07:41;99177.00;;;11.30
64960;BMP180;51487;52.266;10.542;2023-04-24T02:10:07;99178.00;;;11.20
64960;BMP180;51487;52.266;10.542;2023-04-24T02:12:33;99187.00;;;11.30
64960;BMP180;51487;52.266;10.542;2023-04-24T02:14:59;99180.00;;;11.20
64960;BMP180;51487;52.266;10.542;2023-04-24T02:17:24;99181.00;;;11.10
64960;BMP180;51487;52.266;10.542;2023-04-24T02:19:50;99178.00;;;11.10
64960;BMP180;51487;52.266;10.542;2023-04-24T02:22:16;99177.00;;;11.00
64960;BMP180;51487;52.266;10.542;2023-04-24T02:24:41;99176.00;;;11.00
64960;BMP180;51487;52.266;10.542;2023-04-24T02:27:07;99171.00;;;11.00
64960;BMP180;51487;52.266;10.542;2023-04-24T02:29:32;99165.00;;;11.00
64960;BMP180;51487;52.266;10.542;2023-04-24T02:31:58;99160.00;;;11.00
64960;BMP180;51487;52.266;10.542;2023-04-24T02:34:24;99158.00;;;10.90
64960;BMP180;51487;52.266;10.542;2023-04-24T02:36:50;99156.00;;;10.90
64960;BMP180;51487;52.266;10.542;2023-04-24T02:39:15;99149.00;;;10.90
64960;BMP180;51487;52.266;10.542;2023-04-24T02:41:44;99156.00;;;10.80
64960;BMP180;51487;52.266;10.542;2023-04-24T02:44:09;99159.00;;;10.80
64960;BMP180;51487;52.266;10.542;2023-04-24T02:46:35;99153.00;;;10.80
64960;BMP180;51487;52.266;10.542;2023-04-24T02:49:00;99160.00;;;10.80
64960;BMP180;51487;52.266;10.542;2023-04-24T02:51:26;99158.00;;;10.80
64960;BMP180;51487;52.266;10.542;2023-04-24T02:53:52;99157.00;;;10.80
64960;BMP180;51487;52.266;10.542;2023-04-24T02:56:18;99157.00;;;10.70
64960;BMP180;51487;52.266;10.542;2023-04-24T02:58:43;99155.00;;;10.70
64960;BMP180;51487;52.266;10.542;2023-04-24T03:01:09;99156.00;;;10.60
64960;BMP180;51487;52.266;10.542;2023-04-24T03:03:35;99158.00;;;10.60
64960;BMP180;51487;52.266;10.542;2023-04-24T03:06:02;99166.00;;;10.50
64960;BMP180;51487;52.266;10.542;2023-04-24T03:08:27;99161.00;;;10.50
64960;BMP180;51487;52.266;10.542;2023-04-24T03:10:53;99166.00;;;10.40
64960;BMP180;51487;52.266;10.542;2023-04-24T03:13:18;99173.00;;;10.40
64960;BMP180;51487;52.266;10.542;2023-04-24T03:15:44;99171.00;;;10.30
64960;BMP180;51487;52.266;10.542;2023-04-24T03:18:11;99165.00;;;10.30
64960;BMP180;51487;52.266;10.542;2023-04-24T03:20:37;99164.00;;;10.30
64960;BMP180;51487;52.266;10.542;2023-04-24T03:23:02;99170.00;;;10.30
64960;BMP180;51487;52.266;10.542;2023-04-24T03:25:28;99157.00;;;10.20
64960;BMP180;51487;52.266;10.542;2023-04-24T03:27:54;99161.00;;;10.20
64960;BMP180;51487;52.266;10.542;2023-04-24T03:30:20;99155.00;;;10.30
64960;BMP180;51487;52.266;10.542;2023-04-24T03:32:45;99154.00;;;10.30
64960;BMP180;51487;52.266;10.542;2023-04-24T03:35:11;99151.00;;;10.30
64960;BMP180;51487;52.266;10.542;2023-04-24T03:37:36;99151.00;;;10.30
64960;BMP180;51487;52.266;10.542;2023-04-24T03:40:02;99141.00;;;10.30
64960;BMP180;51487;52.266;10.542;2023-04-24T03:42:28;99153.00;;;10.20
64960;BMP180;51487;52.266;10.542;2023-04-24T03:44:54;99145.00;;;10.20
64960;BMP180;51487;52.266;10.542;2023-04-24T03:47:19;99146.00;;;10.20
64960;BMP180;51487;52.266;10.542;2023-04-24T03:49:45;99133.00;;;10.20
64960;BMP180;51487;52.266;10.542;2023-04-24T03:52:10;99133.00;;;10.10
64960;BMP180;51487;52.266;10.542;2023-04-24T03:54:36;99131.00;;;10.20
64960;BMP180;51487;52.266;10.542;2023-04-24T03:57:02;99140.00;;;10.10
64960;BMP180;51487;52.266;10.542;2023-04-24T03:59:28;99129.00;;;10.10
64960;BMP180;51487;52.266;10.542;2023-04-24T04:01:54;99134.00;;;10.10
64960;BMP180;51487;52.266;10.542;2023-04-24T04:04:20;99133.00;;;10.10
64960;BMP180;51487;52.266;10.542;2023-04-24T04:06:45;99140.00;;;10.10
64960;BMP180;51487;52.266;10.542;2023-04-24T04:09:11;99143.00;;;10.00
64960;BMP180;51487;52.266;10.542;2023-04-24T04:11:37;99142.00;;;10.00
64960;BMP180;51487;52.266;10.542;2023-04-24T04:14:03;99143.00;;;10.00
64960;BMP180;51487;52.266;10.542;2023-04-24T04:16:28;99145.00;;;10.00
64960;BMP180;51487;52.266;10.542;2023-04-24T04:18:54;99142.00;;;10.00
64960;BMP180;51487;52.266;10.542;2023-04-24T04:21:20;99141.00;;;10.00
64960;BMP180;51487;52.266;10.542;2023-04-24T04:23:46;99142.00;;;10.10
64960;BMP180;51487;52.266;10.542;2023-04-24T04:26:11;99139.00;;;10.10
64960;BMP180;51487;52.266;10.542;2023-04-24T04:28:38;99152.00;;;10.10
64960;BMP180;51487;52.266;10.542;2023-04-24T04:31:04;99147.00;;;10.10
64960;BMP180;51487;52.266;10.542;2023-04-24T04:33:30;99148.00;;;10.20
64960;BMP180;51487;52.266;10.542;2023-04-24T04:35:56;99147.00;;;10.20
64960;BMP180;51487;52.266;10.542;2023-04-24T04:38:22;99153.00;;;10.20
64960;BMP180;51487;52.266;10.542;2023-04-24T04:40:48;99148.00;;;10.20
64960;BMP180;51487;52.266;10.542;2023-04-24T04:43:14;99156.00;;;10.30
64960;BMP180;51487;52.266;10.542;2023-04-24T04:45:40;99147.00;;;10.30
64960;BMP180;51487;52.266;10.542;2023-04-24T04:48:06;99152.00;;;10.40
64960;BMP180;51487;52.266;10.542;2023-04-24T04:50:38;99147.00;;;10.40
64960;BMP180;51487;52.266;10.542;2023-04-24T04:53:03;99155.00;;;10.50
64960;BMP180;51487;52.266;10.542;2023-04-24T04:55:29;99158.00;;;10.60
64960;BMP180;51487;52.266;10.542;2023-04-24T04:57:55;99155.00;;;10.70
64960;BMP180;51487;52.266;10.542;2023-04-24T05:00:21;99163.00;;;10.80
64960;BMP180;51487;52.266;10.542;2023-04-24T05:02:50;99173.00;;;10.90
64960;BMP180;51487;52.266;10.542;2023-04-24T05:05:16;99176.00;;;11.00
64960;BMP180;51487;52.266;10.542;2023-04-24T05:07:43;99172.00;;;11.10
64960;BMP180;51487;52.266;10.542;2023-04-24T05:10:12;99171.00;;;11.20
64960;BMP180;51487;52.266;10.542;2023-04-24T05:12:37;99176.00;;;11.30
64960;BMP180;51487;52.266;10.542;2023-04-24T05:15:03;99177.00;;;11.40
64960;BMP180;51487;52.266;10.542;2023-04-24T05:17:29;99179.00;;;11.50
64960;BMP180;51487;52.266;10.542;2023-04-24T05:19:54;99172.00;;;11.50
64960;BMP180;51487;52.266;10.542;2023-04-24T05:22:20;99171.00;;;11.60
64960;BMP180;51487;52.266;10.542;2023-04-24T05:24:46;99174.00;;;11.60
64960;BMP180;51487;52.266;10.542;2023-04-24T05:27:13;99167.00;;;11.70
64960;BMP180;51487;52.266;10.542;2023-04-24T05:29:38;99156.00;;;11.70
64960;BMP180;51487;52.266;10.542;2023-04-24T05:32:05;99152.00;;;11.70
64960;BMP180;51487;52.266;10.542;2023-04-24T05:34:31;99167.00;;;11.70
64960;BMP180;51487;52.266;10.542;2023-04-24T05:36:57;99161.00;;;11.60
64960;BMP180;51487;52.266;10.542;2023-04-24T05:39:22;99162.00;;;11.70
64960;BMP180;51487;52.266;10.542;2023-04-24T05:41:50;99156.00;;;11.80
64960;BMP180;51487;52.266;10.542;2023-04-24T05:44:16;99165.00;;;11.70
64960;BMP180;51487;52.266;10.542;2023-04-24T05:46:41;99166.00;;;11.80
64960;BMP180;51487;52.266;10.542;2023-04-24T05:49:07;99171.00;;;11.90
64960;BMP180;51487;52.266;10.542;2023-04-24T05:51:32;99169.00;;;11.90
64960;BMP180;51487;52.266;10.542;2023-04-24T05:53:58;99162.00;;;11.90
64960;BMP180;51487;52.266;10.542;2023-04-24T05:56:23;99166.00;;;12.00
64960;BMP180;51487;52.266;10.542;2023-04-24T05:58:49;99165.00;;;12.10
64960;BMP180;51487;52.266;10.542;2023-04-24T06:01:15;99157.00;;;12.20
64960;BMP180;51487;52.266;10.542;2023-04-24T06:03:41;99157.00;;;12.50
64960;BMP180;51487;52.266;10.542;2023-04-24T06:06:07;99164.00;;;12.60
64960;BMP180;51487;52.266;10.542;2023-04-24T06:08:34;99164.00;;;12.60
64960;BMP180;51487;52.266;10.542;2023-04-24T06:11:00;99164.00;;;12.60
64960;BMP180;51487;52.266;10.542;2023-04-24T06:13:26;99168.00;;;12.50
64960;BMP180;51487;52.266;10.542;2023-04-24T06:15:52;99172.00;;;12.50
64960;BMP180;51487;52.266;10.542;2023-04-24T06:18:18;99175.00;;;12.40
64960;BMP180;51487;52.266;10.542;2023-04-24T06:20:43;99170.00;;;12.40
64960;BMP180;51487;52.266;10.542;2023-04-24T06:23:10;99166.00;;;12.50
64960;BMP180;51487;52.266;10.542;2023-04-24T06:25:35;99180.00;;;12.40
64960;BMP180;51487;52.266;10.542;2023-04-24T06:28:01;99173.00;;;12.50
64960;BMP180;51487;52.266;10.542;2023-04-24T06:30:27;99163.00;;;12.40
64960;BMP180;51487;52.266;10.542;2023-04-24T06:32:53;99163.00;;;12.50
64960;BMP180;51487;52.266;10.542;2023-04-24T06:35:19;99160.00;;;12.50
64960;BMP180;51487;52.266;10.542;2023-04-24T06:37:44;99179.00;;;12.50
64960;BMP180;51487;52.266;10.542;2023-04-24T06:40:11;99164.00;;;12.30
64960;BMP180;51487;52.266;10.542;2023-04-24T06:42:36;99160.00;;;12.40
64960;BMP180;51487;52.266;10.542;2023-04-24T06:45:02;99162.00;;;12.50
64960;BMP180;51487;52.266;10.542;2023-04-24T06:47:28;99162.00;;;12.50
64960;BMP180;51487;52.266;10.542;2023-04-24T06:49:54;99161.00;;;12.70
64960;BMP180;51487;52.266;10.542;2023-04-24T06:52:20;99164.00;;;12.80
64960;BMP180;51487;52.266;10.542;2023-04-24T06:54:46;99166.00;;;12.80
64960;BMP180;51487;52.266;10.542;2023-04-24T06:57:12;99173.00;;;12.90
64960;BMP180;51487;52.266;10.542;2023-04-24T06:59:37;99163.00;;;12.80
64960;BMP180;51487;52.266;10.542;2023-04-24T07:02:03;99165.00;;;13.00
64960;BMP180;51487;52.266;10.542;2023-04-24T07:04:29;99166.00;;;13.00
64960;BMP180;51487;52.266;10.542;2023-04-24T07:06:56;99160.00;;;13.00
64960;BMP180;51487;52.266;10.542;2023-04-24T07:09:23;99168.00;;;13.00
64960;BMP180;51487;52.266;10.542;2023-04-24T07:11:53;99168.00;;;12.90
64960;BMP180;51487;52.266;10.542;2023-04-24T07:14:20;99165.00;;;13.10
64960;BMP180;51487;52.266;10.542;2023-04-24T07:16:46;99176.00;;;13.00
64960;BMP180;51487;52.266;10.542;2023-04-24T07:19:12;99175.00;;;13.10
64960;BMP180;51487;52.266;10.542;2023-04-24T07:21:39;99167.00;;;13.10
64960;BMP180;51487;52.266;10.542;2023-04-24T07:24:04;99170.00;;;13.40
64960;BMP180;51487;52.266;10.542;2023-04-24T07:26:31;99180.00;;;13.70
64960;BMP180;51487;52.266;10.542;2023-04-24T07:28:57;99182.00;;;13.50
64960;BMP180;51487;52.266;10.542;2023-04-24T07:31:22;99192.00;;;13.30
64960;BMP180;51487;52.266;10.542;2023-04-24T07:33:48;99204.00;;;13.00
64960;BMP180;51487;52.266;10.542;2023-04-24T07:36:14;99204.00;;;12.20
64960;BMP180;51487;52.266;10.542;2023-04-24T07:38:46;99214.00;;;11.90
64960;BMP180;51487;52.266;10.542;2023-04-24T07:41:15;99203.00;;;11.70
64960;BMP180;51487;52.266;10.542;2023-04-24T07:43:41;99228.00;;;11.30
64960;BMP180;51487;52.266;10.542;2023-04-24T07:46:08;99232.00;;;11.10
64960;BMP180;51487;52.266;10.542;2023-04-24T07:48:35;99237.00;;;10.80
64960;BMP180;51487;52.266;10.542;2023-04-24T07:51:01;99228.00;;;10.60
64960;BMP180;51487;52.266;10.542;2023-04-24T07:53:27;99238.00;;;10.80
64960;BMP180;51487;52.266;10.542;2023-04-24T07:55:54;99245.00;;;10.80
64960;BMP180;51487;52.266;10.542;2023-04-24T07:58:21;99253.00;;;10.90
64960;BMP180;51487;52.266;10.542;2023-04-24T08:00:46;99246.00;;;11.10
64960;BMP180;51487;52.266;10.542;2023-04-24T08:03:12;99263.00;;;11.10
64960;BMP180;51487;52.266;10.542;2023-04-24T08:05:38;99253.00;;;11.20
64960;BMP180;51487;52.266;10.542;2023-04-24T08:08:04;99256.00;;;11.20
64960;BMP180;51487;52.266;10.542;2023-04-24T08:10:30;99259.00;;;11.40
64960;BMP180;51487;52.266;10.542;2023-04-24T08:12:55;99262.00;;;11.40
64960;BMP180;51487;52.266;10.542;2023-04-24T08:15:21;99259.00;;;11.70
64960;BMP180;51487;52.266;10.542;2023-04-24T08:17:46;99264.00;;;11.80
64960;BMP180;51487;52.266;10.542;2023-04-24T08:20:12;99255.00;;;12.20
64960;BMP180;51487;52.266;10.542;2023-04-24T08:22:41;99252.00;;;12.50
64960;BMP180;51487;52.266;10.542;2023-04-24T08:25:09;99258.00;;;12.60
64960;BMP180;51487;52.266;10.542;2023-04-24T08:27:35;99254.00;;;12.70
64960;BMP180;51487;52.266;10.542;2023-04-24T08:30:03;99246.00;;;12.90
64960;BMP180;51487;52.266;10.542;2023-04-24T08:32:29;99250.00;;;12.80
64960;BMP180;51487;52.266;10.542;2023-04-24T08:34:55;99248.00;;;13.00
64960;BMP180;51487;52.266;10.542;2023-04-24T08:37:22;99255.00;;;12.70
64960;BMP180;51487;52.266;10.542;2023-04-24T08:39:49;99252.00;;;12.70
64960;BMP180;51487;52.266;10.542;2023-04-24T08:42:17;99245.00;;;12.40
64960;BMP180;51487;52.266;10.542;2023-04-24T08:44:43;99256.00;;;12.60
64960;BMP180;51487;52.266;10.542;2023-04-24T08:47:10;99249.00;;;12.60
64960;BMP180;51487;52.266;10.542;2023-04-24T08:49:38;99245.00;;;12.70
64960;BMP180;51487;52.266;10.542;2023-04-24T08:52:07;99235.00;;;13.20
64960;BMP180;51487;52.266;10.542;2023-04-24T08:54:36;99237.00;;;13.40
64960;BMP180;51487;52.266;10.542;2023-04-24T08:57:02;99243.00;;;13.40
64960;BMP180;51487;52.266;10.542;2023-04-24T08:59:31;99241.00;;;13.30
64960;BMP180;51487;52.266;10.542;2023-04-24T09:01:59;99249.00;;;13.20
64960;BMP180;51487;52.266;10.542;2023-04-24T09:04:28;99240.00;;;13.00
64960;BMP180;51487;52.266;10.542;2023-04-24T09:06:56;99252.00;;;13.20
64960;BMP180;51487;52.266;10.542;2023-04-24T09:09:23;99262.00;;;13.20
64960;BMP180;51487;52.266;10.542;2023-04-24T09:11:51;99256.00;;;13.10
64960;BMP180;51487;52.266;10.542;2023-04-24T09:14:19;99253.00;;;13.20
64960;BMP180;51487;52.266;10.542;2023-04-24T09:16:46;99249.00;;;13.30
64960;BMP180;51487;52.266;10.542;2023-04-24T09:19:12;99261.00;;;13.20
64960;BMP180;51487;52.266;10.542;2023-04-24T09:21:38;99263.00;;;13.30
64960;BMP180;51487;52.266;10.542;2023-04-24T09:24:07;99250.00;;;13.30
64960;BMP180;51487;52.266;10.542;2023-04-24T09:26:43;99249.00;;;13.40
64960;BMP180;51487;52.266;10.542;2023-04-24T09:29:14;99240.00;;;13.60
64960;BMP180;51487;52.266;10.542;2023-04-24T09:31:45;99258.00;;;13.60
64960;BMP180;51487;52.266;10.542;2023-04-24T09:34:11;99253.00;;;13.60
64960;BMP180;51487;52.266;10.542;2023-04-24T09:36:39;99250.00;;;13.70
64960;BMP180;51487;52.266;10.542;2023-04-24T09:39:11;99247.00;;;14.00
64960;BMP180;51487;52.266;10.542;2023-04-24T09:42:00;99254.00;;;13.90
64960;BMP180;51487;52.266;10.542;2023-04-24T09:44:28;99254.00;;;13.80
64960;BMP180;51487;52.266;10.542;2023-04-24T09:46:55;99248.00;;;14.00
64960;BMP180;51487;52.266;10.542;2023-04-24T09:49:24;99268.00;;;14.20
64960;BMP180;51487;52.266;10.542;2023-04-24T09:51:51;99259.00;;;14.20
64960;BMP180;51487;52.266;10.542;2023-04-24T09:54:21;99254.00;;;14.20
64960;BMP180;51487;52.266;10.542;2023-04-24T09:56:48;99270.00;;;14.20
64960;BMP180;51487;52.266;10.542;2023-04-24T09:59:17;99266.00;;;14.20
64960;BMP180;51487;52.266;10.542;2023-04-24T10:01:44;99267.00;;;14.40
64960;BMP180;51487;52.266;10.542;2023-04-24T10:04:21;99261.00;;;14.40
64960;BMP180;51487;52.266;10.542;2023-04-24T10:06:52;99277.00;;;14.30
64960;BMP180;51487;52.266;10.542;2023-04-24T10:09:20;99283.00;;;14.00
64960;BMP180;51487;52.266;10.542;2023-04-24T10:11:49;99279.00;;;13.80
64960;BMP180;51487;52.266;10.542;2023-04-24T10:14:18;99277.00;;;13.60
64960;BMP180;51487;52.266;10.542;2023-04-24T10:16:53;99272.00;;;13.70
64960;BMP180;51487;52.266;10.542;2023-04-24T10:19:25;99270.00;;;13.80
64960;BMP180;51487;52.266;10.542;2023-04-24T10:21:52;99278.00;;;13.90
64960;BMP180;51487;52.266;10.542;2023-04-24T10:24:19;99282.00;;;13.90
64960;BMP180;51487;52.266;10.542;2023-04-24T10:26:48;99281.00;;;13.80
64960;BMP180;51487;52.266;10.542;2023-04-24T10:29:16;99274.00;;;13.70
64960;BMP180;51487;52.266;10.542;2023-04-24T10:31:43;99285.00;;;13.60
64960;BMP180;51487;52.266;10.542;2023-04-24T10:34:11;99274.00;;;14.00
64960;BMP180;51487;52.266;10.542;2023-04-24T10:36:42;99285.00;;;14.10
64960;BMP180;51487;52.266;10.542;2023-04-24T10:39:12;99282.00;;;14.00
64960;BMP180;51487;52.266;10.542;2023-04-24T10:41:42;99287.00;;;14.20
64960;BMP180;51487;52.266;10.542;2023-04-24T10:44:10;99290.00;;;14.10
64960;BMP180;51487;52.266;10.542;2023-04-24T10:46:38;99294.00;;;13.90
64960;BMP180;51487;52.266;10.542;2023-04-24T10:49:07;99295.00;;;14.00
64960;BMP180;51487;52.266;10.542;2023-04-24T10:51:45;99289.00;;;14.20
64960;BMP180;51487;52.266;10.542;2023-04-24T10:59:44;99300.00;;;14.10
64960;BMP180;51487;52.266;10.542;2023-04-24T11:02:10;99305.00;;;14.10
64960;BMP180;51487;52.266;10.542;2023-04-24T11:04:36;99295.00;;;13.90
64960;BMP180;51487;52.266;10.542;2023-04-24T11:07:04;99296.00;;;13.90
64960;BMP180;51487;52.266;10.542;2023-04-24T11:09:31;99291.00;;;14.10
64960;BMP180;51487;52.266;10.542;2023-04-24T11:12:08;99292.00;;;14.70
64960;BMP180;51487;52.266;10.542;2023-04-24T11:17:34;99289.00;;;14.70
64960;BMP180;51487;52.266;10.542;2023-04-24T11:20:10;99293.00;;;14.80
64960;BMP180;51487;52.266;10.542;2023-04-24T11:22:38;99293.00;;;14.60
64960;BMP180;51487;52.266;10.542;2023-04-24T11:25:08;99292.00;;;14.40
64960;BMP180;51487;52.266;10.542;2023-04-24T11:27:42;99289.00;;;14.40
64960;BMP180;51487;52.266;10.542;2023-04-24T11:30:10;99288.00;;;14.40
64960;BMP180;51487;52.266;10.542;2023-04-24T11:32:40;99290.00;;;14.60
64960;BMP180;51487;52.266;10.542;2023-04-24T11:35:19;99292.00;;;14.60
64960;BMP180;51487;52.266;10.542;2023-04-24T11:37:48;99278.00;;;14.60
64960;BMP180;51487;52.266;10.542;2023-04-24T11:40:15;99287.00;;;14.90
64960;BMP180;51487;52.266;10.542;2023-04-24T11:42:44;99291.00;;;14.60
64960;BMP180;51487;52.266;10.542;2023-04-24T11:45:15;99305.00;;;14.30
64960;BMP180;51487;52.266;10.542;2023-04-24T11:47:42;99313.00;;;14.30
64960;BMP180;51487;52.266;10.542;2023-04-24T11:50:11;99296.00;;;14.50
64960;BMP180;51487;52.266;10.542;2023-04-24T11:52:44;99314.00;;;14.50
64960;BMP180;51487;52.266;10.542;2023-04-24T11:57:42;99309.00;;;14.10
64960;BMP180;51487;52.266;10.542;2023-04-24T12:00:22;99298.00;;;14.20
64960;BMP180;51487;52.266;10.542;2023-04-24T12:02:50;99314.00;;;14.20
64960;BMP180;51487;52.266;10.542;2023-04-24T12:05:24;99299.00;;;14.40
64960;BMP180;51487;52.266;10.542;2023-04-24T12:07:54;99291.00;;;14.40
64960;BMP180;51487;52.266;10.542;2023-04-24T12:10:25;99293.00;;;14.60
64960;BMP180;51487;52.266;10.542;2023-04-24T12:12:52;99288.00;;;14.60
64960;BMP180;51487;52.266;10.542;2023-04-24T12:15:20;99291.00;;;14.60
64960;BMP180;51487;52.266;10.542;2023-04-24T12:17:46;99295.00;;;14.60
64960;BMP180;51487;52.266;10.542;2023-04-24T12:20:13;99283.00;;;14.50
64960;BMP180;51487;52.266;10.542;2023-04-24T12:22:48;99305.00;;;14.20
64960;BMP180;51487;52.266;10.542;2023-04-24T12:25:41;99289.00;;;13.90
64960;BMP180;51487;52.266;10.542;2023-04-24T12:28:13;99290.00;;;14.10
64960;BMP180;51487;52.266;10.542;2023-04-24T12:30:48;99293.00;;;14.20
64960;BMP180;51487;52.266;10.542;2023-04-24T12:33:20;99292.00;;;14.10
64960;BMP180;51487;52.266;10.542;2023-04-24T12:35:48;99300.00;;;14.00
64960;BMP180;51487;52.266;10.542;2023-04-24T12:38:22;99313.00;;;13.70
64960;BMP180;51487;52.266;10.542;2023-04-24T12:41:02;99308.00;;;13.60
64960;BMP180;51487;52.266;10.542;2023-04-24T12:43:29;99319.00;;;13.60
64960;BMP180;51487;52.266;10.542;2023-04-24T12:45:55;99313.00;;;13.30
64960;BMP180;51487;52.266;10.542;2023-04-24T12:48:20;99312.00;;;13.30
64960;BMP180;51487;52.266;10.542;2023-04-24T12:50:47;99304.00;;;13.20
64960;BMP180;51487;52.266;10.542;2023-04-24T12:53:13;99309.00;;;13.50
64960;BMP180;51487;52.266;10.542;2023-04-24T12:55:39;99307.00;;;13.80
64960;BMP180;51487;52.266;10.542;2023-04-24T12:58:05;99313.00;;;13.80
64960;BMP180;51487;52.266;10.542;2023-04-24T13:00:30;99324.00;;;13.60
64960;BMP180;51487;52.266;10.542;2023-04-24T13:02:56;99327.00;;;13.30
64960;BMP180;51487;52.266;10.542;2023-04-24T13:05:22;99329.00;;;13.10
64960;BMP180;51487;52.266;10.542;2023-04-24T13:07:47;99367.00;;;12.50
64960;BMP180;51487;52.266;10.542;2023-04-24T13:10:13;99362.00;;;12.10
64960;BMP180;51487;52.266;10.542;2023-04-24T13:12:38;99349.00;;;12.20
64960;BMP180;51487;52.266;10.542;2023-04-24T13:15:07;99349.00;;;12.10
64960;BMP180;51487;52.266;10.542;2023-04-24T13:17:33;99358.00;;;12.30
64960;BMP180;51487;52.266;10.542;2023-04-24T13:19:58;99350.00;;;12.70
64960;BMP180;51487;52.266;10.542;2023-04-24T13:22:24;99342.00;;;13.00
64960;BMP180;51487;52.266;10.542;2023-04-24T13:24:50;99343.00;;;12.80
64960;BMP180;51487;52.266;10.542;2023-04-24T13:27:17;99349.00;;;12.80
64960;BMP180;51487;52.266;10.542;2023-04-24T13:29:43;99335.00;;;12.70
64960;BMP180;51487;52.266;10.542;2023-04-24T13:32:09;99337.00;;;12.70
64960;BMP180;51487;52.266;10.542;2023-04-24T13:34:35;99349.00;;;12.60
64960;BMP180;51487;52.266;10.542;2023-04-24T13:37:01;99365.00;;;12.20
64960;BMP180;51487;52.266;10.542;2023-04-24T13:39:28;99370.00;;;12.10
64960;BMP180;51487;52.266;10.542;2023-04-24T13:41:54;99366.00;;;12.00
64960;BMP180;51487;52.266;10.542;2023-04-24T13:44:21;99366.00;;;11.90
64960;BMP180;51487;52.266;10.542;2023-04-24T13:46:49;99364.00;;;11.90
64960;BMP180;51487;52.266;10.542;2023-04-24T13:49:17;99371.00;;;12.10
64960;BMP180;51487;52.266;10.542;2023-04-24T13:51:43;99380.00;;;12.00
64960;BMP180;51487;52.266;10.542;2023-04-24T13:54:09;99367.00;;;12.20
64960;BMP180;51487;52.266;10.542;2023-04-24T13:56:34;99379.00;;;12.20
64960;BMP180;51487;52.266;10.542;2023-04-24T13:59:00;99382.00;;;12.40
64960;BMP180;51487;52.266;10.542;2023-04-24T14:01:26;99380.00;;;12.00
64960;BMP180;51487;52.266;10.542;2023-04-24T14:03:53;99382.00;;;12.00
64960;BMP180;51487;52.266;10.542;2023-04-24T14:06:19;99378.00;;;11.90